Sugar Mountain, North Carolina
Current Conditions -  °F | °C
As of 7:15 PM on Wednesday 22 Oct 2014 (Local Time) from KTNB Reporting Station
Overcast Overcast  
Wind Chill: 37°   Ceiling: 1800
Heat Index: 42°   Visibility: 10mi
Dew Point: 34°   Wind: 8mph
Humidity: 73%   Direction: 330°NNW
Pressure: 30.12"   Gusts: 18mph
Location:  36.1797°N, 81.8424°W
Report Text: KTNB 222315Z AUTO 33007G16KT 310V040 10SM OVC018 06/01 A3012 RMK AO2 T00570012
Loading
Personal Weather Stations






























Interactive Weather Map
Tropical Storm Tracking
New forecast layout! Learn more

10-Day Weather Forecast

Advertisements
Track Severe Weather on mobile